createdAt,value
2022-10-10T00:01:45.393Z,1.75
2022-10-10T00:04:14.285Z,1.90
2022-10-10T00:06:42.954Z,2.10
2022-10-10T00:09:11.412Z,1.70
2022-10-10T00:11:39.711Z,2.30
2022-10-10T00:14:09.740Z,2.08
2022-10-10T00:16:38.479Z,1.95
2022-10-10T00:19:07.253Z,1.80
2022-10-10T00:21:36.395Z,2.75
2022-10-10T00:24:05.490Z,1.73
2022-10-10T00:26:33.653Z,2.50
2022-10-10T00:29:02.196Z,1.88
2022-10-10T00:31:33.020Z,2.22
2022-10-10T00:34:01.685Z,2.55
2022-10-10T00:36:30.703Z,2.20
2022-10-10T00:38:59.004Z,2.05
2022-10-10T00:41:29.070Z,2.10
2022-10-10T00:44:09.769Z,2.42
2022-10-10T00:46:39.899Z,1.80
2022-10-10T00:49:14.359Z,2.03
2022-10-10T00:51:44.852Z,2.08
2022-10-10T00:54:15.753Z,2.13
2022-10-10T00:56:48.044Z,2.33
2022-10-10T00:59:17.604Z,2.13
2022-10-10T01:01:50.580Z,1.98
2022-10-10T01:04:39.528Z,2.25
2022-10-10T01:07:12.848Z,1.88
2022-10-10T01:09:44.422Z,2.10
2022-10-10T01:12:21.032Z,2.10
2022-10-10T01:14:57.966Z,2.10
2022-10-10T01:17:37.821Z,2.10
2022-10-10T01:20:30.562Z,2.25
2022-10-10T01:23:25.275Z,1.85
2022-10-10T01:26:09.134Z,2.13
2022-10-10T01:28:46.734Z,2.33
2022-10-10T01:31:22.438Z,2.67
2022-10-10T01:34:01.795Z,2.10
2022-10-10T01:36:39.590Z,2.08
2022-10-10T01:39:13.983Z,1.90
2022-10-10T01:41:51.053Z,2.05
2022-10-10T01:44:25.732Z,2.22
2022-10-10T01:46:54.805Z,2.00
2022-10-10T01:49:26.241Z,2.53
2022-10-10T01:52:06.943Z,2.30
2022-10-10T01:54:45.894Z,2.22
2022-10-10T01:57:21.836Z,2.20
2022-10-10T02:00:03.549Z,2.35
2022-10-10T02:02:42.992Z,2.22
2022-10-10T02:05:20.697Z,2.50
2022-10-10T02:07:54.401Z,2.05
2022-10-10T02:10:27.772Z,2.33
2022-10-10T02:12:58.222Z,2.30
2022-10-10T02:15:33.454Z,2.50
2022-10-10T02:18:03.678Z,2.40
2022-10-10T02:20:33.647Z,2.45
2022-10-10T02:23:01.989Z,2.67
2022-10-10T02:25:36.788Z,2.40
2022-10-10T02:28:11.999Z,2.60
2022-10-10T02:30:46.661Z,2.60
2022-10-10T02:33:18.343Z,2.63
2022-10-10T02:35:49.678Z,3.00
2022-10-10T02:38:19.856Z,2.53
2022-10-10T02:40:50.318Z,2.65
2022-10-10T02:43:20.349Z,2.65
2022-10-10T02:45:50.046Z,2.50
2022-10-10T02:48:18.738Z,2.78
2022-10-10T02:50:47.312Z,3.03
2022-10-10T02:53:18.209Z,2.72
2022-10-10T02:55:47.200Z,2.97
2022-10-10T02:58:15.734Z,2.83
2022-10-10T03:00:44.315Z,2.65
2022-10-10T03:03:14.396Z,2.67
2022-10-10T03:05:43.219Z,2.50
2022-10-10T03:08:12.022Z,2.42
2022-10-10T03:10:40.706Z,2.50
2022-10-10T03:13:09.286Z,2.58
2022-10-10T03:15:37.778Z,2.20
2022-10-10T03:18:06.746Z,2.13
2022-10-10T03:20:39.869Z,2.65
2022-10-10T03:24:02.602Z,2.67
2022-10-10T03:26:33.711Z,2.90
2022-10-10T03:29:03.271Z,2.58
2022-10-10T03:31:31.644Z,2.58
2022-10-10T03:34:00.424Z,2.65
2022-10-10T03:36:31.495Z,2.50
2022-10-10T03:39:00.066Z,2.40
2022-10-10T03:41:28.539Z,2.60
2022-10-10T03:43:57.252Z,2.78
2022-10-10T03:46:26.019Z,3.15
2022-10-10T03:48:55.592Z,3.00
2022-10-10T03:51:24.280Z,2.60
2022-10-10T03:53:54.979Z,2.97
2022-10-10T03:56:23.989Z,2.70
2022-10-10T03:58:52.485Z,2.80
2022-10-10T04:01:20.835Z,2.83
2022-10-10T04:03:52.109Z,3.45
2022-10-10T04:06:21.560Z,3.17
2022-10-10T04:08:49.919Z,3.17
2022-10-10T04:11:20.006Z,3.00
2022-10-10T04:13:48.589Z,3.05
2022-10-10T04:16:17.079Z,3.38
2022-10-10T04:18:45.711Z,2.90
2022-10-10T04:21:13.987Z,3.55
2022-10-10T04:23:42.525Z,4.10
2022-10-10T04:26:10.878Z,3.97
2022-10-10T04:28:40.857Z,4.35
2022-10-10T04:31:09.591Z,3.97
2022-10-10T04:33:37.673Z,4.80
2022-10-10T04:36:06.467Z,4.32
2022-10-10T04:38:35.006Z,4.32
2022-10-10T04:41:03.941Z,4.80
2022-10-10T04:43:32.274Z,5.65
2022-10-10T04:46:02.494Z,5.22
2022-10-10T04:48:30.978Z,4.78
2022-10-10T04:51:00.700Z,4.95
2022-10-10T04:53:30.030Z,5.00
2022-10-10T04:55:58.443Z,5.18
2022-10-10T04:58:27.909Z,4.47
2022-10-10T05:00:56.834Z,4.07
2022-10-10T05:03:27.168Z,4.18
2022-10-10T05:05:55.489Z,4.10
2022-10-10T05:08:24.630Z,4.07
2022-10-10T05:10:53.600Z,4.00
2022-10-10T05:13:22.368Z,4.10
2022-10-10T05:15:52.974Z,4.18
2022-10-10T05:18:21.630Z,3.65
2022-10-10T05:20:51.450Z,4.15
2022-10-10T05:23:19.789Z,4.10
2022-10-10T05:25:50.660Z,3.92
2022-10-10T05:28:19.348Z,3.83
2022-10-10T05:30:48.056Z,4.15
2022-10-10T05:33:16.791Z,4.57
2022-10-10T05:35:45.294Z,3.88
2022-10-10T05:38:15.172Z,3.72
2022-10-10T05:40:43.822Z,4.28
2022-10-10T05:43:12.221Z,3.97
2022-10-10T05:45:40.597Z,3.72
2022-10-10T05:48:08.983Z,3.65
2022-10-10T05:50:41.215Z,3.67
2022-10-10T05:53:10.155Z,4.03
2022-10-10T05:55:39.730Z,3.47
2022-10-10T05:58:08.461Z,3.80
2022-10-10T06:00:39.607Z,3.70
2022-10-10T06:03:09.082Z,3.80
2022-10-10T06:05:38.318Z,3.63
2022-10-10T06:08:11.615Z,3.97
2022-10-10T06:10:45.107Z,4.15
2022-10-10T06:13:14.905Z,3.88
2022-10-10T06:15:45.481Z,4.28
2022-10-10T06:18:14.166Z,4.47
2022-10-10T06:20:42.761Z,4.13
2022-10-10T06:23:11.429Z,4.43
2022-10-10T06:25:42.032Z,3.75
2022-10-10T06:28:12.915Z,4.03
2022-10-10T06:30:42.150Z,3.88
2022-10-10T06:33:11.512Z,3.78
2022-10-10T06:35:41.899Z,3.90
2022-10-10T06:38:11.101Z,3.80
2022-10-10T06:40:41.121Z,3.83
2022-10-10T06:43:12.192Z,3.80
2022-10-10T06:45:42.207Z,3.55
2022-10-10T06:48:11.527Z,3.80
2022-10-10T06:50:40.603Z,3.72
2022-10-10T06:53:09.082Z,3.92
2022-10-10T06:55:37.789Z,4.43
2022-10-10T06:58:07.981Z,3.58
2022-10-10T07:00:36.581Z,3.55
2022-10-10T07:03:05.885Z,3.75
2022-10-10T07:05:34.197Z,3.45
2022-10-10T07:08:02.869Z,3.80
2022-10-10T07:10:31.936Z,3.85
2022-10-10T07:13:00.343Z,3.55
2022-10-10T07:15:30.203Z,4.22
2022-10-10T07:17:59.536Z,3.60
2022-10-10T07:20:28.351Z,4.93
2022-10-10T07:22:56.725Z,4.30
2022-10-10T07:25:25.612Z,5.55
2022-10-10T07:27:54.237Z,4.95
2022-10-10T07:30:22.869Z,4.13
2022-10-10T07:32:54.451Z,5.22
2022-10-10T07:35:23.038Z,4.70
2022-10-10T07:37:56.097Z,5.15
2022-10-10T07:40:24.799Z,5.15
2022-10-10T07:42:53.618Z,5.47
2022-10-10T07:45:22.462Z,4.90
2022-10-10T07:47:53.225Z,4.72
2022-10-10T07:50:22.008Z,4.80
2022-10-10T07:52:50.274Z,5.30
2022-10-10T07:55:18.662Z,5.30
2022-10-10T07:57:53.115Z,4.93
2022-10-10T08:00:22.675Z,5.53
2022-10-10T08:02:52.620Z,5.20
2022-10-10T08:05:21.823Z,5.40
2022-10-10T08:07:50.623Z,5.32
2022-10-10T08:10:19.442Z,5.00
2022-10-10T08:12:48.087Z,5.03
2022-10-10T08:15:20.319Z,5.07
2022-10-10T08:17:49.137Z,5.28
2022-10-10T08:20:19.367Z,6.00
2022-10-10T08:22:48.158Z,5.32
2022-10-10T08:25:17.127Z,5.28
2022-10-10T08:27:45.809Z,5.20
2022-10-10T08:30:14.813Z,4.95
2022-10-10T08:32:43.213Z,5.47
2022-10-10T08:35:12.035Z,5.43
2022-10-10T08:37:42.022Z,5.15
2022-10-10T08:40:14.410Z,5.38
2022-10-10T08:42:51.965Z,5.80
2022-10-10T08:45:24.122Z,5.25
2022-10-10T08:47:56.838Z,5.32
2022-10-10T08:50:30.446Z,5.07
2022-10-10T08:53:04.371Z,5.32
2022-10-10T08:55:35.378Z,4.78
2022-10-10T08:58:08.034Z,5.03
2022-10-10T09:00:41.409Z,5.13
2022-10-10T09:03:21.413Z,5.53
2022-10-10T09:06:06.560Z,5.25
2022-10-10T09:08:47.760Z,4.97
2022-10-10T09:11:32.558Z,5.65
2022-10-10T09:14:12.315Z,5.95
2022-10-10T09:16:47.933Z,4.97
2022-10-10T09:19:29.005Z,4.68
2022-10-10T09:22:03.116Z,5.40
2022-10-10T09:24:41.116Z,4.70
2022-10-10T09:27:16.197Z,4.85
2022-10-10T09:29:49.477Z,4.78
2022-10-10T09:32:22.474Z,4.90
2022-10-10T09:34:55.738Z,4.72
2022-10-10T09:37:46.410Z,5.07
2022-10-10T09:40:24.877Z,4.75
2022-10-10T09:42:53.946Z,5.05
2022-10-10T09:45:31.615Z,4.43
2022-10-10T09:48:00.595Z,5.03
2022-10-10T09:50:29.192Z,4.80
2022-10-10T09:52:59.847Z,4.90
2022-10-10T09:55:35.078Z,4.60
2022-10-10T09:58:15.303Z,4.30
2022-10-10T10:00:43.896Z,4.72
2022-10-10T10:03:17.147Z,5.22
2022-10-10T10:05:48.175Z,4.25
2022-10-10T10:08:23.408Z,5.00
2022-10-10T10:10:57.910Z,4.40
2022-10-10T10:13:30.301Z,4.85
2022-10-10T10:16:04.482Z,4.78
2022-10-10T10:18:40.235Z,4.97
2022-10-10T10:21:18.793Z,5.07
2022-10-10T10:23:53.279Z,4.80
2022-10-10T10:26:27.341Z,5.05
2022-10-10T10:28:59.062Z,5.28
2022-10-10T10:31:58.778Z,4.47
2022-10-10T10:34:43.062Z,5.55
2022-10-10T10:37:20.948Z,4.80
2022-10-10T10:40:16.439Z,4.63
2022-10-10T10:43:01.266Z,4.90
2022-10-10T10:45:38.509Z,4.72
2022-10-10T10:48:20.503Z,4.40
2022-10-10T10:51:13.273Z,4.43
2022-10-10T10:53:50.711Z,4.43
2022-10-10T11:00:26.214Z,4.85
2022-10-10T11:02:54.729Z,4.28
2022-10-10T11:05:41.845Z,4.13
2022-10-10T11:08:23.945Z,4.47
2022-10-10T11:11:02.585Z,4.05
2022-10-10T11:13:39.698Z,3.88
2022-10-10T11:16:36.366Z,4.20
2022-10-10T11:19:18.006Z,3.60
2022-10-10T11:21:51.570Z,4.07
2022-10-10T11:24:34.840Z,3.50
2022-10-10T11:27:09.705Z,3.28
2022-10-10T11:29:59.958Z,3.78
2022-10-10T11:32:36.540Z,4.07
2022-10-10T11:35:15.335Z,3.35
2022-10-10T11:37:48.806Z,3.60
2022-10-10T11:40:30.285Z,3.70
2022-10-10T11:43:06.032Z,3.20
2022-10-10T11:45:39.119Z,3.55
2022-10-10T11:48:19.537Z,3.30
2022-10-10T11:50:53.957Z,3.38
2022-10-10T11:53:30.267Z,3.60
2022-10-10T11:56:05.506Z,3.20
2022-10-10T11:58:39.132Z,3.10
2022-10-10T12:01:15.703Z,3.40
2022-10-10T12:03:45.963Z,4.03
2022-10-10T12:06:22.719Z,3.72
2022-10-10T12:08:59.868Z,3.40
2022-10-10T12:11:36.007Z,3.15
2022-10-10T12:14:10.385Z,3.20
2022-10-10T12:16:39.490Z,3.63
2022-10-10T12:19:17.973Z,3.80
2022-10-10T12:22:00.818Z,3.80
2022-10-10T12:24:33.933Z,3.90
2022-10-10T12:27:28.729Z,3.22
2022-10-10T12:30:24.995Z,3.17
2022-10-10T12:32:55.329Z,4.03
2022-10-10T12:35:46.652Z,3.63
2022-10-10T12:38:21.538Z,3.35
2022-10-10T12:41:10.193Z,3.60
2022-10-10T12:43:42.647Z,3.00
2022-10-10T12:46:27.042Z,2.85
2022-10-10T12:49:06.712Z,3.20
2022-10-10T12:51:37.792Z,2.90
2022-10-10T12:54:08.498Z,3.30
2022-10-10T12:56:43.148Z,3.70
2022-10-10T12:59:21.051Z,2.90
2022-10-10T13:01:54.963Z,2.97
2022-10-10T13:04:25.209Z,3.53
2022-10-10T13:06:58.101Z,2.92
2022-10-10T13:09:33.925Z,3.60
2022-10-10T13:12:06.868Z,3.45
2022-10-10T13:14:40.613Z,3.92
2022-10-10T13:17:23.426Z,2.95
2022-10-10T13:19:52.860Z,2.80
2022-10-10T13:22:23.730Z,2.80
2022-10-10T13:24:54.554Z,3.40
2022-10-10T13:27:26.957Z,3.00
2022-10-10T13:29:56.665Z,2.75
2022-10-10T13:32:27.864Z,3.45
2022-10-10T13:34:59.017Z,2.80
2022-10-10T13:37:30.076Z,3.15
2022-10-10T13:39:59.900Z,2.72
2022-10-10T13:42:32.136Z,3.08
2022-10-10T13:45:03.315Z,2.50
2022-10-10T13:47:49.835Z,2.63
2022-10-10T13:50:26.688Z,3.00
2022-10-10T13:53:34.418Z,2.70
2022-10-10T13:56:08.396Z,2.38
2022-10-10T13:58:42.247Z,2.45
2022-10-10T14:01:36.432Z,3.05
2022-10-10T14:04:19.964Z,3.35
2022-10-10T14:06:57.305Z,2.58
2022-10-10T14:09:32.901Z,3.10
2022-10-10T14:12:04.509Z,2.30
2022-10-10T14:14:36.663Z,2.92
2022-10-10T14:17:06.796Z,2.83
2022-10-10T14:19:36.202Z,2.65
2022-10-10T14:22:05.028Z,2.30
2022-10-10T14:24:35.287Z,3.22
2022-10-10T14:27:13.291Z,2.90
2022-10-10T14:29:41.946Z,2.58
2022-10-10T14:32:11.633Z,2.72
2022-10-10T14:34:41.113Z,2.63
2022-10-10T14:37:17.479Z,2.55
2022-10-10T14:39:48.244Z,2.85
2022-10-10T14:42:19.979Z,2.45
2022-10-10T14:44:48.757Z,3.47
2022-10-10T14:47:19.847Z,2.55
2022-10-10T14:49:48.724Z,3.13
2022-10-10T14:52:17.768Z,3.08
2022-10-10T14:54:47.546Z,2.60
2022-10-10T14:57:16.721Z,3.30
2022-10-10T14:59:48.630Z,2.72
2022-10-10T15:02:22.778Z,2.60
2022-10-10T15:04:51.976Z,2.72
2022-10-10T15:07:21.284Z,2.88
2022-10-10T15:12:42.226Z,2.92
2022-10-10T15:15:16.071Z,3.13
2022-10-10T15:17:45.084Z,2.70
2022-10-10T15:20:14.694Z,2.65
2022-10-10T15:22:43.854Z,2.80
2022-10-10T15:25:14.258Z,3.45
2022-10-10T15:27:44.290Z,3.17
2022-10-10T15:30:13.720Z,2.53
2022-10-10T15:32:43.370Z,3.40
2022-10-10T15:35:16.034Z,3.10
2022-10-10T15:37:45.736Z,3.10
2022-10-10T15:40:17.557Z,3.30
2022-10-10T15:42:46.286Z,2.95
2022-10-10T15:45:19.364Z,3.20
2022-10-10T15:48:00.882Z,3.28
2022-10-10T15:50:29.995Z,3.15
2022-10-10T15:52:58.768Z,3.15
2022-10-10T15:55:29.378Z,3.33
2022-10-10T15:57:58.516Z,2.70
2022-10-10T16:00:35.073Z,2.90
2022-10-10T16:03:06.209Z,2.67
2022-10-10T16:05:38.577Z,2.75
2022-10-10T16:08:08.242Z,3.10
2022-10-10T16:10:42.739Z,2.97
2022-10-10T16:13:12.227Z,2.75
2022-10-10T16:15:41.349Z,2.72
2022-10-10T16:18:09.723Z,3.35
2022-10-10T16:20:40.259Z,3.40
2022-10-10T16:23:09.355Z,3.00
2022-10-10T16:25:38.232Z,3.17
2022-10-10T16:28:08.125Z,3.13
2022-10-10T16:30:37.170Z,3.90
2022-10-10T16:33:06.189Z,4.10
2022-10-10T16:35:37.815Z,3.17
2022-10-10T16:38:06.378Z,3.53
2022-10-10T16:40:36.871Z,3.40
2022-10-10T16:43:14.493Z,3.67
2022-10-10T16:45:44.650Z,2.90
2022-10-10T16:48:13.869Z,3.15
2022-10-10T16:50:43.164Z,3.47
2022-10-10T16:53:12.457Z,3.28
2022-10-10T16:55:42.034Z,3.25
2022-10-10T16:58:12.033Z,3.88
2022-10-10T17:00:43.077Z,3.63
2022-10-10T17:03:11.882Z,3.25
2022-10-10T17:05:40.565Z,3.67
2022-10-10T17:08:09.468Z,3.35
2022-10-10T17:10:37.967Z,3.63
2022-10-10T17:13:07.224Z,4.07
2022-10-10T17:15:42.218Z,4.03
2022-10-10T17:18:11.913Z,4.20
2022-10-10T17:20:43.132Z,4.40
2022-10-10T17:23:12.122Z,4.25
2022-10-10T17:25:43.024Z,4.43
2022-10-10T17:28:12.137Z,4.22
2022-10-10T17:30:45.460Z,4.43
2022-10-10T17:33:15.965Z,4.50
2022-10-10T17:35:47.543Z,4.70
2022-10-10T17:38:38.627Z,4.32
2022-10-10T17:41:06.914Z,4.75
2022-10-10T17:43:36.131Z,4.07
2022-10-10T17:46:32.635Z,7.30
2022-10-10T17:48:56.200Z,4.50
2022-10-10T17:51:24.712Z,5.28
2022-10-10T17:53:53.759Z,5.10
2022-10-10T17:56:23.659Z,5.18
2022-10-10T17:58:52.814Z,5.70
2022-10-10T18:01:23.932Z,4.85
2022-10-10T18:03:52.790Z,4.90
2022-10-10T18:06:25.043Z,3.75
2022-10-10T18:08:55.851Z,4.43
2022-10-10T18:11:27.868Z,4.90
2022-10-10T18:14:00.346Z,4.90
2022-10-10T18:16:33.907Z,4.10
2022-10-10T18:19:07.385Z,4.07
2022-10-10T18:21:37.259Z,3.78
2022-10-10T18:24:08.763Z,4.10
2022-10-10T18:26:39.927Z,4.32
2022-10-10T18:29:09.105Z,4.22
2022-10-10T18:31:43.770Z,3.85
2022-10-10T18:34:14.651Z,4.30
2022-10-10T18:36:44.758Z,5.32
2022-10-10T18:39:15.724Z,5.22
2022-10-10T18:41:46.082Z,4.75
2022-10-10T18:44:19.542Z,6.72
2022-10-10T18:46:53.240Z,6.90
2022-10-10T18:49:24.608Z,5.05
2022-10-10T18:51:54.821Z,5.40
2022-10-10T18:54:23.935Z,6.63
2022-10-10T18:56:53.296Z,6.43
2022-10-10T19:02:15.506Z,6.38
2022-10-10T19:04:45.144Z,7.32
2022-10-10T19:07:13.481Z,7.15
2022-10-10T19:09:43.710Z,6.88
2022-10-10T19:12:12.390Z,6.07
2022-10-10T19:14:40.825Z,5.88
2022-10-10T19:17:09.235Z,5.85
2022-10-10T19:19:39.621Z,6.40
2022-10-10T19:22:08.198Z,8.50
2022-10-10T19:24:36.768Z,5.78
2022-10-10T19:27:05.458Z,6.15
2022-10-10T19:29:34.515Z,5.93
2022-10-10T19:32:03.120Z,5.80
2022-10-10T19:34:31.586Z,5.75
2022-10-10T19:37:02.239Z,5.28
2022-10-10T19:39:30.987Z,5.63
2022-10-10T19:41:59.384Z,4.72
2022-10-10T19:44:28.577Z,4.85
2022-10-10T19:46:59.656Z,5.18
2022-10-10T19:49:28.220Z,4.82
2022-10-10T19:51:56.721Z,5.07
2022-10-10T19:54:26.931Z,4.57
2022-10-10T19:56:55.189Z,4.55
2022-10-10T19:59:24.028Z,4.80
2022-10-10T20:01:52.766Z,4.80
2022-10-10T20:04:21.329Z,5.40
2022-10-10T20:06:50.272Z,4.95
2022-10-10T20:09:18.628Z,5.03
2022-10-10T20:11:48.536Z,5.25
2022-10-10T20:14:17.508Z,4.93
2022-10-10T20:16:45.801Z,5.90
2022-10-10T20:19:14.515Z,5.55
2022-10-10T20:21:43.915Z,5.88
2022-10-10T20:24:13.296Z,5.75
2022-10-10T20:26:42.005Z,6.82
2022-10-10T20:29:11.437Z,5.20
2022-10-10T20:31:40.557Z,5.82
2022-10-10T20:34:08.823Z,6.20
2022-10-10T20:36:39.278Z,5.93
2022-10-10T20:39:12.365Z,6.03
2022-10-10T20:41:42.407Z,6.15
2022-10-10T20:44:14.847Z,6.22
2022-10-10T20:46:45.389Z,6.80
2022-10-10T20:49:15.985Z,6.35
2022-10-10T20:51:49.019Z,6.22
2022-10-10T20:54:19.548Z,6.22
2022-10-10T20:56:49.845Z,6.25
2022-10-10T20:59:21.173Z,8.35
2022-10-10T21:01:49.903Z,8.43
2022-10-10T21:04:18.670Z,8.38
2022-10-10T21:06:47.792Z,7.60
2022-10-10T21:09:16.892Z,6.28
2022-10-10T21:11:47.629Z,5.80
2022-10-10T21:14:21.109Z,6.10
2022-10-10T21:16:50.515Z,6.22
2022-10-10T21:19:19.149Z,6.20
2022-10-10T21:21:48.597Z,6.35
2022-10-10T21:24:17.046Z,5.97
2022-10-10T21:26:49.194Z,5.95
2022-10-10T21:29:18.098Z,5.60
2022-10-10T21:31:48.318Z,5.93
2022-10-10T21:34:18.906Z,5.80
2022-10-10T21:36:47.463Z,6.05
2022-10-10T21:39:16.029Z,5.75
2022-10-10T21:41:44.432Z,5.70
2022-10-10T21:44:13.355Z,5.20
2022-10-10T21:46:41.700Z,5.80
2022-10-10T21:49:13.280Z,5.40
2022-10-10T21:51:43.205Z,6.03
2022-10-10T21:54:12.179Z,6.28
2022-10-10T21:56:41.184Z,6.03
2022-10-10T21:59:09.584Z,5.80
2022-10-10T22:01:39.246Z,5.78
2022-10-10T22:04:15.713Z,5.32
2022-10-10T22:06:50.377Z,5.30
2022-10-10T22:09:21.156Z,6.00
2022-10-10T22:11:50.623Z,5.93
2022-10-10T22:14:18.988Z,5.75
2022-10-10T22:16:47.738Z,6.47
2022-10-10T22:19:17.610Z,5.85
2022-10-10T22:21:46.125Z,6.35
2022-10-10T22:24:15.031Z,6.13
2022-10-10T22:26:43.380Z,5.78
2022-10-10T22:29:11.877Z,7.10
2022-10-10T22:31:40.778Z,6.00
2022-10-10T22:34:09.148Z,6.43
2022-10-10T22:36:38.899Z,6.18
2022-10-10T22:39:11.067Z,6.65
2022-10-10T22:41:39.407Z,6.65
2022-10-10T22:44:08.335Z,6.00
2022-10-10T22:46:36.981Z,6.18
2022-10-10T22:49:06.029Z,6.88
2022-10-10T22:51:34.283Z,6.43
2022-10-10T22:54:04.643Z,5.80
2022-10-10T22:56:33.749Z,5.85
2022-10-10T22:59:02.556Z,6.22
2022-10-10T23:01:31.418Z,6.32
2022-10-10T23:04:03.356Z,6.47
2022-10-10T23:06:31.935Z,5.90
2022-10-10T23:09:00.244Z,6.22
2022-10-10T23:11:30.665Z,6.60
2022-10-10T23:13:59.593Z,6.35
2022-10-10T23:16:28.168Z,5.75
2022-10-10T23:18:56.578Z,6.22
2022-10-10T23:21:25.575Z,6.50
2022-10-10T23:23:55.250Z,6.40
2022-10-10T23:26:25.169Z,6.18
2022-10-10T23:28:55.634Z,6.20
2022-10-10T23:31:25.914Z,6.55
2022-10-10T23:33:54.692Z,5.80
2022-10-10T23:36:24.620Z,6.88
2022-10-10T23:38:54.650Z,6.25
2022-10-10T23:41:23.487Z,6.25
2022-10-10T23:43:54.317Z,6.40
2022-10-10T23:46:22.912Z,6.30
2022-10-10T23:48:52.376Z,6.13
2022-10-10T23:51:21.922Z,7.05
2022-10-10T23:53:51.603Z,7.13
2022-10-10T23:56:20.027Z,7.40
2022-10-10T23:58:49.594Z,6.53
